Airfield :
LOGIN :

Register | Disclaimer

   EN    FR    IT 

 










Legend :    VFR   Marginal VFR   IFR   Intensive IFR   Very Intensive IFR
Visi :
Ceiling :
>= 8 km
>= 3000ft
5 to 8 km
1000 to 3000 ft
1500m to 5 km
500 to 1000 ft
800 to 1500m
200 to 500 ft
< 800m
< 200 ft
Symbols :   Thunderstorms  Fog  Heavy snow  Heavy precipitations  Wind > 20 kt
SIGMETs :     Misc.  Thunderstorms  Icing  Turbulence  Mountain Waves  Volcanic Ashes






- Airport Elevation : 778 ft
- IATA code : BRQ


LKTB - Brno-Turany

CURRENT METAR :
  • 260914Z 17004KT 1300 R27/P2000N BR OVC002 M02/M02 Q1022 R27/29//95 RMK REG QNH 1016

EXPIRED METARs :
  • 260900Z 17004KT 0800 R27/1500U FZFG OVC002 M02/M02 Q1022 REFZDZ R27/29//95 TEMPO -FZDZ
  • 260848Z 18005KT 0700 R27/1300N FZFG OVC002 M02/M02 Q1022 REFZDZ R27/29//95 RMK REG QNH 1017
  • 260830Z 18006KT 0800 R27/1300D -FZDZ FZFG VV002 M02/M02 Q1022 R27/29//95 TEMPO 0500 -FZDZ FZFG
  • 260819Z 18005KT 1100 R27/1700D -FZDZ BR OVC001 M02/M02 Q1022 R27/29//95 RMK REG QNH 1017
  • 260800Z 18004KT 4000 -FZDZ BR OVC002 M01/M02 Q1022 R27/29//95 TEMPO 2500 -FZDZ BR
  • 260730Z 20002KT 4800 -FZDZ BR OVC003 M01/M02 Q1022 R27/29//95 NOSIG
  • 260700Z 22004KT 5000 -FZDZ BR OVC004 M01/M02 Q1022 R27/29//95 NOSIG
  • 260630Z 19004KT 6000 -FZDZ OVC004 M01/M02 Q1022 R27/29//95 TEMPO 3000 -FZDZ BR

TAF TAF LKTB
Valid from the 26 at 06:00 until the 27 at 12:00 UTC


260500Z 2606/2712 17004KT 5000 BR OVC007
TEMPO 2606/2610 2500 BR OVC003
PROB40
TEMPO 2606/2610 1100 -FZDZ BR OVC001
BECMG 2614/2616 VRB02KT
TEMPO 2622/2710 1700 BR OVC003
PROB30
TEMPO 2700/2709 0800 -FZDZ FZFG VV001



MET'MAP, your aeronautical weather chart ! - Copyright ORBIFLY December 2007 - Disclaimer

ORBIFLY MET'MAP TEAM :

Programming & Development : Alexandra Zaïnal
Concept & original design : Baudouin d'Aumeries
Assistance for programming : Marc-Olivier Méhu
Technical & hardware support : Manuel Goepfert

Contact : metmap@orbifly.com




SOURCES & CREDITS :

   NOAA